createdAt,value
2019-01-24T00:02:05.242Z,929.7
2019-01-24T00:05:11.242Z,929.6
2019-01-24T00:08:17.228Z,929.6
2019-01-24T00:11:25.872Z,929.6
2019-01-24T00:14:31.839Z,929.6
2019-01-24T00:17:37.705Z,929.5
2019-01-24T00:20:43.867Z,929.4
2019-01-24T00:23:49.829Z,929.4
2019-01-24T00:26:55.748Z,929.2
2019-01-24T00:30:01.627Z,929.1
2019-01-24T00:33:07.574Z,929
2019-01-24T00:36:13.536Z,928.9
2019-01-24T00:39:19.759Z,929
2019-01-24T00:42:25.756Z,929.3
2019-01-24T00:45:31.818Z,929.2
2019-01-24T00:48:37.772Z,928.9
2019-01-24T00:51:45.167Z,928.9
2019-01-24T00:54:51.168Z,928.9
2019-01-24T00:57:57.200Z,929
2019-01-24T01:01:03.152Z,929.1
2019-01-24T01:04:09.113Z,929
2019-01-24T01:07:14.993Z,928.9
2019-01-24T01:10:20.929Z,928.9
2019-01-24T01:13:29.647Z,929
2019-01-24T01:16:35.607Z,928.8
2019-01-24T01:19:41.595Z,928.9
2019-01-24T01:22:47.526Z,928.9
2019-01-24T01:25:53.496Z,928.8
2019-01-24T01:28:59.560Z,928.7
2019-01-24T01:32:05.431Z,928.6
2019-01-24T01:35:11.362Z,928.5
2019-01-24T01:38:18.655Z,928.5
2019-01-24T01:41:24.612Z,928.5
2019-01-24T01:44:30.571Z,928.4
2019-01-24T01:47:36.453Z,928.6
2019-01-24T01:50:42.389Z,928.6
2019-01-24T01:53:48.349Z,928.6
2019-01-24T01:56:54.236Z,928.5
2019-01-24T02:00:00.222Z,928.6
2019-01-24T02:03:06.227Z,928.6
2019-01-24T02:06:12.183Z,928.7
2019-01-24T02:09:18.251Z,928.6
2019-01-24T02:12:24.136Z,928.7
2019-01-24T02:15:30.066Z,928.6
2019-01-24T02:18:36.032Z,928.7
2019-01-24T02:21:41.990Z,928.5
2019-01-24T02:24:47.947Z,928.5
2019-01-24T02:27:53.909Z,928.6
2019-01-24T02:30:59.856Z,928.6
2019-01-24T02:34:05.816Z,928.5
2019-01-24T02:37:11.776Z,928.6
2019-01-24T02:40:17.836Z,928.6
2019-01-24T02:43:23.796Z,928.6
2019-01-24T02:46:29.675Z,928.7
2019-01-24T02:49:35.630Z,928.7
2019-01-24T02:52:41.594Z,928.6
2019-01-24T02:55:47.651Z,928.6
2019-01-24T02:58:53.617Z,928.6
2019-01-24T03:01:59.551Z,928.6
2019-01-24T03:05:05.511Z,928.6
2019-01-24T03:08:11.484Z,928.6
2019-01-24T03:11:17.484Z,928.6
2019-01-24T03:14:23.644Z,928.5
2019-01-24T03:17:29.520Z,928.4
2019-01-24T03:20:35.420Z,928.4
2019-01-24T03:23:41.296Z,928.3
2019-01-24T03:26:47.331Z,928.3
2019-01-24T03:29:53.210Z,928.3
2019-01-24T03:32:59.412Z,928.3
2019-01-24T03:36:05.354Z,928.2
2019-01-24T03:39:11.373Z,928.2
2019-01-24T03:42:17.350Z,928.1
2019-01-24T03:45:23.315Z,928.2
2019-01-24T03:48:29.208Z,928.2
2019-01-24T03:51:35.230Z,928.1
2019-01-24T03:54:41.178Z,928
2019-01-24T03:57:47.049Z,928
2019-01-24T04:00:52.987Z,928
2019-01-24T04:03:58.946Z,928
2019-01-24T04:07:05.009Z,928
2019-01-24T04:10:10.968Z,928
2019-01-24T04:13:19.486Z,928
2019-01-24T04:16:25.446Z,928.1
2019-01-24T04:19:31.346Z,928.1
2019-01-24T04:22:37.358Z,928.1
2019-01-24T04:25:43.370Z,928.1
2019-01-24T04:28:49.273Z,928.1
2019-01-24T04:31:55.160Z,928.1
2019-01-24T04:35:01.209Z,928.2
2019-01-24T04:38:07.113Z,928.1
2019-01-24T04:41:13.135Z,928.2
2019-01-24T04:44:19.185Z,928.2
2019-01-24T04:47:27.850Z,928.2
2019-01-24T04:50:33.825Z,928.2
2019-01-24T04:53:39.816Z,928.3
2019-01-24T04:56:45.698Z,928.3
2019-01-24T04:59:51.634Z,928.3
2019-01-24T05:02:57.594Z,928.4
2019-01-24T05:06:03.658Z,928.4
2019-01-24T05:09:09.639Z,928.5
2019-01-24T05:12:15.578Z,928.5
2019-01-24T05:15:21.677Z,928.5
2019-01-24T05:18:27.626Z,928.4
2019-01-24T05:21:33.779Z,928.5
2019-01-24T05:24:39.638Z,928.4
2019-01-24T05:27:45.625Z,928.5
2019-01-24T05:30:51.663Z,928.6
2019-01-24T05:33:57.604Z,928.6
2019-01-24T05:37:03.478Z,928.6
2019-01-24T05:40:09.516Z,928.5
2019-01-24T05:43:15.587Z,928.6
2019-01-24T05:46:21.541Z,928.6
2019-01-24T05:49:27.499Z,928.6
2019-01-24T05:52:33.455Z,928.6
2019-01-24T05:55:39.410Z,928.6
2019-01-24T05:58:45.395Z,928.6
2019-01-24T06:01:51.436Z,928.5
2019-01-24T06:04:57.317Z,928.5
2019-01-24T06:08:03.218Z,928.5
2019-01-24T06:11:09.260Z,928.6
2019-01-24T06:14:15.273Z,928.5
2019-01-24T06:17:21.232Z,928.5
2019-01-24T06:20:27.192Z,928.6
2019-01-24T06:23:33.112Z,928.6
2019-01-24T06:26:39.105Z,928.6
2019-01-24T06:29:45.064Z,928.6
2019-01-24T06:32:50.957Z,928.7
2019-01-24T06:35:56.880Z,928.9
2019-01-24T06:39:02.953Z,928.7
2019-01-24T06:42:09.003Z,928.7
2019-01-24T06:45:14.902Z,928.8
2019-01-24T06:48:20.880Z,928.8
2019-01-24T06:51:26.753Z,928.9
2019-01-24T06:54:32.740Z,929
2019-01-24T06:57:38.696Z,929
2019-01-24T07:00:47.626Z,929.1
2019-01-24T07:03:53.667Z,929
2019-01-24T07:06:59.648Z,929.1
2019-01-24T07:10:05.549Z,929.1
2019-01-24T07:13:11.586Z,929.1
2019-01-24T07:16:17.525Z,929.1
2019-01-24T07:19:23.487Z,929.1
2019-01-24T07:22:29.467Z,929.1
2019-01-24T07:25:35.411Z,929.1
2019-01-24T07:28:41.676Z,929.1
2019-01-24T07:31:47.843Z,929.1
2019-01-24T07:34:54.120Z,929
2019-01-24T07:38:00.457Z,929.1
2019-01-24T07:41:08.496Z,929.1
2019-01-24T07:44:14.959Z,929.2
2019-01-24T07:47:22.120Z,929.1
2019-01-24T07:50:28.339Z,929.1
2019-01-24T07:53:36.629Z,929.1
2019-01-24T07:56:42.637Z,929.2
2019-01-24T07:59:49.661Z,929.2
2019-01-24T08:02:55.634Z,929.2
2019-01-24T08:06:01.706Z,929.3
2019-01-24T08:09:14.257Z,929.3
2019-01-24T08:12:20.211Z,929.3
2019-01-24T08:15:26.218Z,929.3
2019-01-24T08:18:33.366Z,929.3
2019-01-24T08:21:39.241Z,929.3
2019-01-24T08:24:45.217Z,929.3
2019-01-24T08:27:51.359Z,929.3
2019-01-24T08:30:57.410Z,929.4
2019-01-24T08:34:03.521Z,929.5
2019-01-24T08:37:09.469Z,929.4
2019-01-24T08:40:16.428Z,929.6
2019-01-24T08:43:22.489Z,929.5
2019-01-24T08:46:28.654Z,929.6
2019-01-24T08:49:36.090Z,929.7
2019-01-24T08:52:42.230Z,929.7
2019-01-24T08:55:48.391Z,929.9
2019-01-24T08:58:54.907Z,929.9
2019-01-24T09:02:01.247Z,929.8
2019-01-24T09:05:08.441Z,929.9
2019-01-24T09:08:14.469Z,930
2019-01-24T09:11:20.658Z,930
2019-01-24T09:14:27.211Z,929.9
2019-01-24T09:17:33.499Z,929.9
2019-01-24T09:20:39.899Z,929.9
2019-01-24T09:23:45.941Z,929.9
2019-01-24T09:26:51.904Z,930
2019-01-24T09:29:57.863Z,930
2019-01-24T09:33:03.987Z,930.1
2019-01-24T09:36:09.902Z,930
2019-01-24T09:39:18.418Z,930
2019-01-24T09:42:24.824Z,930.1
2019-01-24T09:45:30.833Z,930.1
2019-01-24T09:48:37.969Z,930
2019-01-24T09:51:43.984Z,929.9
2019-01-24T09:54:49.940Z,929.9
2019-01-24T09:57:55.816Z,929.8
2019-01-24T10:01:01.867Z,929.8
2019-01-24T10:04:07.817Z,929.8
2019-01-24T10:07:13.776Z,929.9
2019-01-24T10:10:20.038Z,929.8
2019-01-24T10:13:29.499Z,929.8
2019-01-24T10:16:35.634Z,929.8
2019-01-24T10:19:41.670Z,929.7
2019-01-24T10:22:47.589Z,929.7
2019-01-24T10:25:53.470Z,929.6
2019-01-24T10:28:59.486Z,929.6
2019-01-24T10:32:05.438Z,929.6
2019-01-24T10:35:11.554Z,929.6
2019-01-24T10:38:18.072Z,929.6
2019-01-24T10:41:24.143Z,929.5
2019-01-24T10:44:30.119Z,929.5
2019-01-24T10:47:37.355Z,929.5
2019-01-24T10:50:43.455Z,929.5
2019-01-24T10:53:49.329Z,929.6
2019-01-24T10:56:55.486Z,929.5
2019-01-24T11:00:01.473Z,929.5
2019-01-24T11:03:07.508Z,929.4
2019-01-24T11:06:13.566Z,929.4
2019-01-24T11:09:19.433Z,929.4
2019-01-24T11:12:25.436Z,929.6
2019-01-24T11:15:31.592Z,929.6
2019-01-24T11:18:40.433Z,929.6
2019-01-24T11:21:46.684Z,929.7
2019-01-24T11:24:52.985Z,929.7
2019-01-24T11:27:59.182Z,929.7
2019-01-24T11:31:05.171Z,929.7
2019-01-24T11:34:11.183Z,929.8
2019-01-24T11:37:18.379Z,929.8
2019-01-24T11:40:24.369Z,929.8
2019-01-24T11:43:30.248Z,929.8
2019-01-24T11:46:36.430Z,929.9
2019-01-24T11:49:43.542Z,929.9
2019-01-24T11:52:49.816Z,929.9
2019-01-24T11:55:56.031Z,929.9
2019-01-24T11:59:02.037Z,929.9
2019-01-24T12:02:08.097Z,930
2019-01-24T12:05:16.192Z,930
2019-01-24T12:08:23.874Z,930.1
2019-01-24T12:11:31.605Z,930.1
2019-01-24T12:14:37.683Z,930.1
2019-01-24T12:17:43.586Z,930
2019-01-24T12:20:50.546Z,930
2019-01-24T12:23:56.629Z,930.1
2019-01-24T12:27:06.116Z,930.1
2019-01-24T12:30:12.423Z,930.1
2019-01-24T12:33:18.611Z,930.1
2019-01-24T12:36:25.454Z,930.1
2019-01-24T12:39:35.390Z,930.2
2019-01-24T12:42:41.304Z,930.2
2019-01-24T12:45:47.348Z,930.2
2019-01-24T12:48:53.464Z,930.2
2019-01-24T12:52:00.317Z,930.2
2019-01-24T12:55:06.402Z,930.2
2019-01-24T12:58:12.323Z,930.2
2019-01-24T13:01:18.376Z,930.2
2019-01-24T13:04:24.294Z,930.2
2019-01-24T13:07:30.466Z,930.2
2019-01-24T13:10:37.431Z,930.2
2019-01-24T13:13:43.597Z,930.4
2019-01-24T13:16:49.566Z,930.4
2019-01-24T13:19:55.714Z,930.4
2019-01-24T13:23:01.743Z,930.5
2019-01-24T13:26:07.735Z,930.6
2019-01-24T13:29:13.800Z,930.7
2019-01-24T13:32:19.866Z,930.8
2019-01-24T13:35:25.737Z,930.9
2019-01-24T13:38:32.765Z,930.9
2019-01-24T13:41:43.780Z,931
2019-01-24T13:44:49.754Z,931.1
2019-01-24T13:47:56.115Z,931.2
2019-01-24T13:51:02.073Z,931.2
2019-01-24T13:54:10.955Z,931.1
2019-01-24T13:57:16.835Z,931.2
2019-01-24T14:00:22.939Z,931.2
2019-01-24T14:03:28.975Z,931.3
2019-01-24T14:06:34.959Z,931.3
2019-01-24T14:09:44.427Z,931.3
2019-01-24T14:12:51.570Z,931.3
2019-01-24T14:15:57.732Z,931.4
2019-01-24T14:19:03.669Z,931.5
2019-01-24T14:22:09.776Z,931.5
2019-01-24T14:25:15.689Z,931.6
2019-01-24T14:28:21.677Z,931.6
2019-01-24T14:31:27.557Z,931.6
2019-01-24T14:34:33.660Z,931.7
2019-01-24T14:37:41.145Z,931.7
2019-01-24T14:40:47.204Z,931.7
2019-01-24T14:43:53.419Z,931.7
2019-01-24T14:46:59.483Z,931.7
2019-01-24T14:50:05.543Z,931.9
2019-01-24T14:53:11.551Z,931.9
2019-01-24T14:56:17.880Z,931.9
2019-01-24T14:59:24.041Z,931.9
2019-01-24T15:02:29.913Z,931.9
2019-01-24T15:05:35.957Z,932
2019-01-24T15:08:41.860Z,932.1
2019-01-24T15:11:49.003Z,932.1
2019-01-24T15:14:55.170Z,932.1
2019-01-24T15:18:01.326Z,932.1
2019-01-24T15:21:07.286Z,932.1
2019-01-24T15:24:13.247Z,932.2
2019-01-24T15:27:19.149Z,932.3
2019-01-24T15:30:25.140Z,932.4
2019-01-24T15:33:31.280Z,932.5
2019-01-24T15:36:37.154Z,932.5
2019-01-24T15:39:43.109Z,932.5
2019-01-24T15:42:49.122Z,932.6
2019-01-24T15:45:55.248Z,932.7
2019-01-24T15:49:01.544Z,932.7
2019-01-24T15:52:07.606Z,932.8
2019-01-24T15:55:13.793Z,932.8
2019-01-24T15:58:19.838Z,932.9
2019-01-24T16:01:25.842Z,932.9
2019-01-24T16:04:31.813Z,933
2019-01-24T16:07:37.682Z,933.1
2019-01-24T16:10:43.682Z,933
2019-01-24T16:13:49.725Z,933
2019-01-24T16:16:55.818Z,933.1
2019-01-24T16:20:01.902Z,933.2
2019-01-24T16:23:07.835Z,933.3
2019-01-24T16:26:13.787Z,933.4
2019-01-24T16:29:19.778Z,933.4
2019-01-24T16:32:25.892Z,933.5
2019-01-24T16:35:32.978Z,933.5
2019-01-24T16:38:39.044Z,933.6
2019-01-24T16:41:44.921Z,933.6
2019-01-24T16:44:50.953Z,933.7
2019-01-24T16:47:56.884Z,933.7
2019-01-24T16:51:02.915Z,933.7
2019-01-24T16:54:08.872Z,933.8
2019-01-24T16:57:14.725Z,933.8
2019-01-24T17:00:20.668Z,933.8
2019-01-24T17:03:26.549Z,933.9
2019-01-24T17:06:32.585Z,933.9
2019-01-24T17:09:38.547Z,934
2019-01-24T17:12:44.459Z,934
2019-01-24T17:15:50.458Z,934
2019-01-24T17:18:56.543Z,934.1
2019-01-24T17:22:02.578Z,934.2
2019-01-24T17:25:08.463Z,934.1
2019-01-24T17:28:14.400Z,934.1
2019-01-24T17:31:20.354Z,934
2019-01-24T17:34:26.312Z,934
2019-01-24T17:37:32.277Z,934.1
2019-01-24T17:40:38.527Z,934.1
2019-01-24T17:43:44.787Z,934.3
2019-01-24T17:46:50.844Z,934.3
2019-01-24T17:49:56.840Z,934.4
2019-01-24T17:53:02.794Z,934.4
2019-01-24T17:56:08.750Z,934.5
2019-01-24T17:59:14.632Z,934.5
2019-01-24T18:02:20.668Z,934.6
2019-01-24T18:05:26.564Z,934.7
2019-01-24T18:08:32.793Z,934.7
2019-01-24T18:11:38.850Z,934.7
2019-01-24T18:14:44.758Z,934.7
2019-01-24T18:17:50.645Z,934.8
2019-01-24T18:20:56.515Z,934.8
2019-01-24T18:24:02.649Z,934.8
2019-01-24T18:27:08.556Z,934.9
2019-01-24T18:30:14.505Z,935
2019-01-24T18:33:20.571Z,934.9
2019-01-24T18:36:26.556Z,935
2019-01-24T18:39:32.608Z,935.1
2019-01-24T18:42:38.501Z,935.1
2019-01-24T18:45:44.558Z,935.1
2019-01-24T18:48:50.568Z,935.2
2019-01-24T18:51:56.731Z,935.1
2019-01-24T18:55:02.696Z,935.1
2019-01-24T18:58:08.659Z,935.1
2019-01-24T19:01:14.608Z,935
2019-01-24T19:04:20.658Z,935.1
2019-01-24T19:07:26.633Z,935.2
2019-01-24T19:10:32.517Z,935.1
2019-01-24T19:13:38.654Z,935.1
2019-01-24T19:16:44.583Z,935.3
2019-01-24T19:19:50.580Z,935.2
2019-01-24T19:22:56.459Z,935.1
2019-01-24T19:26:02.522Z,935.2
2019-01-24T19:29:08.486Z,935.3
2019-01-24T19:32:14.445Z,935.2
2019-01-24T19:35:20.331Z,935.2
2019-01-24T19:38:26.593Z,935.2
2019-01-24T19:41:32.467Z,935.3
2019-01-24T19:44:40.098Z,935.3
2019-01-24T19:47:46.059Z,935.4
2019-01-24T19:50:52.000Z,935.4
2019-01-24T19:53:58.398Z,935.3
2019-01-24T19:57:04.806Z,935.4
2019-01-24T20:00:10.813Z,935.5
2019-01-24T20:03:16.775Z,935.5
2019-01-24T20:06:22.836Z,935.5
2019-01-24T20:09:28.720Z,935.5
2019-01-24T20:12:34.761Z,935.5
2019-01-24T20:15:40.719Z,935.6
2019-01-24T20:18:46.796Z,935.7
2019-01-24T20:21:56.767Z,935.8
2019-01-24T20:25:02.791Z,935.8
2019-01-24T20:28:08.676Z,935.8
2019-01-24T20:31:14.607Z,935.8
2019-01-24T20:34:20.538Z,935.9
2019-01-24T20:37:26.531Z,935.9
2019-01-24T20:40:32.690Z,935.9
2019-01-24T20:43:39.537Z,936
2019-01-24T20:46:45.534Z,936
2019-01-24T20:49:51.491Z,936.1
2019-01-24T20:52:57.367Z,936.1
2019-01-24T20:56:05.358Z,936.2
2019-01-24T20:59:11.315Z,936.2
2019-01-24T21:02:17.194Z,936.3
2019-01-24T21:05:23.118Z,936.4
2019-01-24T21:08:29.116Z,936.5
2019-01-24T21:11:35.181Z,936.5
2019-01-24T21:14:41.048Z,936.4
2019-01-24T21:17:47.109Z,936.5
2019-01-24T21:20:53.145Z,936.5
2019-01-24T21:23:59.334Z,936.5
2019-01-24T21:27:05.373Z,936.6
2019-01-24T21:30:11.332Z,936.7
2019-01-24T21:33:17.285Z,936.8
2019-01-24T21:36:23.157Z,936.7
2019-01-24T21:39:29.058Z,936.8
2019-01-24T21:42:35.058Z,936.8
2019-01-24T21:45:41.065Z,936.9
2019-01-24T21:48:47.078Z,936.9
2019-01-24T21:51:53.074Z,937
2019-01-24T21:54:59.203Z,937
2019-01-24T21:58:05.195Z,937
2019-01-24T22:01:11.124Z,937.1
2019-01-24T22:04:16.991Z,937.1
2019-01-24T22:07:22.944Z,937
2019-01-24T22:10:28.897Z,936.9
2019-01-24T22:13:34.767Z,937
2019-01-24T22:16:40.816Z,937.1
2019-01-24T22:19:46.777Z,937.1
2019-01-24T22:22:52.737Z,937
2019-01-24T22:25:58.693Z,937
2019-01-24T22:29:04.707Z,936.9
2019-01-24T22:32:10.582Z,937
2019-01-24T22:35:16.579Z,936.8
2019-01-24T22:38:22.452Z,936.7
2019-01-24T22:41:28.493Z,936.7
2019-01-24T22:44:37.225Z,936.6
2019-01-24T22:47:43.179Z,936.7
2019-01-24T22:50:49.141Z,936.6
2019-01-24T22:53:55.074Z,936.6
2019-01-24T22:57:01.060Z,936.7
2019-01-24T23:00:06.935Z,936.7
2019-01-24T23:03:12.978Z,936.6
2019-01-24T23:06:18.883Z,936.7
2019-01-24T23:09:24.895Z,936.8
2019-01-24T23:12:30.852Z,936.9
2019-01-24T23:15:36.813Z,936.8
2019-01-24T23:18:42.772Z,936.6
2019-01-24T23:21:50.215Z,936.9
2019-01-24T23:24:56.091Z,936.9
2019-01-24T23:28:02.120Z,937.2
2019-01-24T23:31:08.165Z,937.3
2019-01-24T23:34:14.126Z,937
2019-01-24T23:37:20.087Z,936.9
2019-01-24T23:40:25.943Z,936.9
2019-01-24T23:43:32.101Z,936.8
2019-01-24T23:46:38.361Z,937.2
2019-01-24T23:49:44.421Z,937.4
2019-01-24T23:52:50.332Z,937.3
2019-01-24T23:55:56.338Z,937.3
2019-01-24T23:59:02.212Z,937.1
